createdAt,value
2019-02-19T00:00:32.347Z,11.46
2019-02-19T00:01:32.331Z,11.36
2019-02-19T00:02:32.316Z,11.43
2019-02-19T00:03:32.285Z,11.41
2019-02-19T00:04:32.270Z,11.51
2019-02-19T00:05:32.256Z,11.51
2019-02-19T00:06:32.235Z,11.52
2019-02-19T00:07:32.216Z,11.51
2019-02-19T00:08:32.196Z,11.48
2019-02-19T00:09:32.179Z,11.56
2019-02-19T00:10:32.170Z,11.51
2019-02-19T00:11:32.142Z,11.38
2019-02-19T00:12:32.124Z,11.36
2019-02-19T00:13:32.104Z,11.38
2019-02-19T00:14:32.084Z,11.43
2019-02-19T00:15:32.066Z,11.38
2019-02-19T00:16:32.049Z,11.46
2019-02-19T00:17:32.030Z,11.34
2019-02-19T00:18:32.017Z,11.40
2019-02-19T00:19:31.994Z,11.38
2019-02-19T00:20:31.973Z,11.33
2019-02-19T00:21:31.956Z,11.27
2019-02-19T00:22:31.939Z,11.33
2019-02-19T00:23:31.919Z,11.28
2019-02-19T00:24:31.912Z,11.43
2019-02-19T00:25:31.887Z,11.30
2019-02-19T00:26:31.868Z,11.33
2019-02-19T00:27:31.850Z,11.43
2019-02-19T00:28:31.827Z,11.23
2019-02-19T00:29:31.820Z,11.31
2019-02-19T00:30:31.791Z,11.31
2019-02-19T00:31:31.773Z,11.25
2019-02-19T00:32:31.758Z,11.20
2019-02-19T00:33:31.738Z,11.25
2019-02-19T00:34:31.716Z,11.20
2019-02-19T00:35:31.739Z,11.22
2019-02-19T00:36:31.678Z,11.19
2019-02-19T00:37:31.658Z,11.20
2019-02-19T00:38:31.640Z,11.25
2019-02-19T00:39:31.623Z,11.31
2019-02-19T00:40:31.607Z,11.31
2019-02-19T00:41:31.588Z,11.37
2019-02-19T00:42:31.569Z,11.40
2019-02-19T00:43:31.549Z,11.40
2019-02-19T00:44:31.531Z,11.34
2019-02-19T00:45:31.513Z,11.28
2019-02-19T00:46:31.495Z,11.31
2019-02-19T00:47:31.475Z,11.37
2019-02-19T00:48:31.468Z,11.46
2019-02-19T00:49:31.446Z,11.33
2019-02-19T00:50:31.420Z,11.34
2019-02-19T00:51:31.402Z,11.28
2019-02-19T00:52:31.383Z,11.33
2019-02-19T00:53:31.366Z,11.25
2019-02-19T00:54:31.349Z,11.13
2019-02-19T00:55:31.329Z,11.04
2019-02-19T00:56:31.309Z,11.15
2019-02-19T00:57:31.292Z,11.18
2019-02-19T00:58:31.297Z,11.11
2019-02-19T00:59:31.251Z,11.09
2019-02-19T01:00:31.235Z,11.16
2019-02-19T01:01:31.217Z,11.05
2019-02-19T01:02:31.210Z,11.15
2019-02-19T01:03:31.176Z,11.09
2019-02-19T01:04:31.159Z,11.09
2019-02-19T01:05:31.139Z,11.22
2019-02-19T01:06:31.125Z,11.30
2019-02-19T01:07:31.102Z,11.30
2019-02-19T01:08:31.088Z,11.30
2019-02-19T01:09:31.065Z,11.36
2019-02-19T01:10:31.048Z,11.33
2019-02-19T01:11:31.032Z,11.23
2019-02-19T01:12:31.013Z,11.16
2019-02-19T01:13:30.993Z,11.25
2019-02-19T01:14:30.974Z,11.23
2019-02-19T01:15:30.955Z,11.19
2019-02-19T01:16:30.935Z,11.13
2019-02-19T01:17:30.926Z,11.15
2019-02-19T01:18:30.901Z,11.19
2019-02-19T01:19:30.886Z,11.22
2019-02-19T01:20:30.862Z,11.18
2019-02-19T01:21:30.845Z,11.12
2019-02-19T01:22:30.823Z,11.04
2019-02-19T01:23:30.807Z,11.04
2019-02-19T01:24:30.784Z,11.00
2019-02-19T01:25:30.768Z,11.00
2019-02-19T01:26:30.753Z,10.95
2019-02-19T01:27:30.735Z,10.91
2019-02-19T01:28:30.713Z,10.94
2019-02-19T01:29:30.698Z,10.97
2019-02-19T01:30:30.678Z,11.01
2019-02-19T01:31:30.656Z,11.00
2019-02-19T01:32:30.637Z,10.97
2019-02-19T01:33:30.620Z,10.90
2019-02-19T01:34:30.603Z,10.93
2019-02-19T01:35:30.582Z,10.93
2019-02-19T01:36:30.562Z,10.91
2019-02-19T01:37:30.546Z,10.85
2019-02-19T01:38:30.528Z,10.85
2019-02-19T01:39:30.509Z,10.86
2019-02-19T01:40:30.488Z,10.76
2019-02-19T01:41:30.469Z,10.79
2019-02-19T01:42:30.450Z,10.73
2019-02-19T01:43:30.441Z,10.76
2019-02-19T01:44:30.417Z,10.78
2019-02-19T01:45:34.169Z,10.76
2019-02-19T01:46:30.377Z,10.76
2019-02-19T01:47:30.354Z,10.79
2019-02-19T01:48:30.336Z,10.72
2019-02-19T01:49:30.330Z,10.65
2019-02-19T01:50:30.304Z,10.68
2019-02-19T01:51:30.283Z,10.68
2019-02-19T01:52:30.260Z,10.65
2019-02-19T01:53:30.243Z,10.57
2019-02-19T01:54:30.221Z,10.45
2019-02-19T01:55:30.209Z,10.49
2019-02-19T01:56:30.184Z,10.48
2019-02-19T01:57:30.168Z,10.58
2019-02-19T01:58:30.152Z,10.68
2019-02-19T01:59:30.127Z,10.65
2019-02-19T02:00:30.111Z,10.75
2019-02-19T02:01:30.096Z,10.62
2019-02-19T02:02:30.081Z,10.52
2019-02-19T02:03:30.055Z,10.52
2019-02-19T02:04:30.036Z,10.60
2019-02-19T02:05:30.013Z,10.55
2019-02-19T02:06:29.999Z,10.55
2019-02-19T02:07:29.984Z,10.64
2019-02-19T02:08:29.956Z,10.46
2019-02-19T02:09:29.938Z,10.45
2019-02-19T02:10:29.921Z,10.45
2019-02-19T02:11:29.905Z,10.45
2019-02-19T02:12:29.879Z,10.49
2019-02-19T02:13:29.864Z,10.52
2019-02-19T02:14:29.844Z,10.52
2019-02-19T02:15:29.824Z,10.57
2019-02-19T02:16:29.805Z,10.64
2019-02-19T02:17:29.787Z,10.75
2019-02-19T02:18:29.767Z,10.72
2019-02-19T02:19:29.750Z,10.75
2019-02-19T02:20:29.728Z,10.76
2019-02-19T02:21:29.710Z,10.73
2019-02-19T02:22:29.693Z,10.62
2019-02-19T02:23:29.712Z,10.64
2019-02-19T02:24:29.658Z,10.60
2019-02-19T02:25:29.636Z,10.49
2019-02-19T02:26:29.617Z,10.64
2019-02-19T02:27:29.604Z,10.57
2019-02-19T02:28:29.580Z,10.54
2019-02-19T02:29:29.560Z,10.49
2019-02-19T02:30:29.542Z,10.49
2019-02-19T02:31:29.521Z,10.52
2019-02-19T02:32:29.514Z,10.49
2019-02-19T02:33:29.483Z,10.42
2019-02-19T02:34:29.469Z,10.43
2019-02-19T02:35:29.444Z,10.36
2019-02-19T02:36:29.425Z,10.49
2019-02-19T02:37:29.410Z,10.48
2019-02-19T02:38:29.392Z,10.60
2019-02-19T02:39:29.380Z,10.55
2019-02-19T02:40:29.353Z,10.52
2019-02-19T02:41:29.337Z,10.52
2019-02-19T02:42:29.316Z,10.57
2019-02-19T02:43:29.295Z,10.57
2019-02-19T02:44:29.274Z,10.46
2019-02-19T02:45:29.274Z,10.45
2019-02-19T02:46:29.237Z,10.45
2019-02-19T02:47:29.218Z,10.45
2019-02-19T02:48:29.203Z,10.49
2019-02-19T02:49:29.182Z,10.57
2019-02-19T02:50:29.163Z,10.55
2019-02-19T02:51:29.146Z,10.55
2019-02-19T02:52:29.126Z,10.60
2019-02-19T02:53:29.114Z,10.58
2019-02-19T02:54:29.096Z,10.68
2019-02-19T02:55:29.068Z,10.64
2019-02-19T02:56:29.048Z,10.72
2019-02-19T02:57:29.028Z,10.61
2019-02-19T02:58:29.017Z,10.72
2019-02-19T02:59:28.992Z,10.64
2019-02-19T03:00:28.973Z,10.65
2019-02-19T03:01:28.954Z,10.65
2019-02-19T03:02:28.957Z,10.72
2019-02-19T03:03:28.915Z,10.76
2019-02-19T03:04:28.899Z,10.82
2019-02-19T03:05:28.881Z,10.73
2019-02-19T03:06:28.860Z,10.75
2019-02-19T03:07:28.843Z,10.79
2019-02-19T03:08:28.833Z,10.75
2019-02-19T03:09:28.803Z,10.75
2019-02-19T03:10:28.783Z,10.78
2019-02-19T03:11:28.767Z,10.75
2019-02-19T03:12:28.743Z,10.75
2019-02-19T03:13:28.728Z,10.79
2019-02-19T03:14:28.706Z,10.70
2019-02-19T03:15:28.689Z,10.73
2019-02-19T03:16:28.714Z,10.70
2019-02-19T03:17:28.656Z,10.76
2019-02-19T03:18:28.635Z,10.70
2019-02-19T03:19:28.613Z,10.73
2019-02-19T03:20:28.594Z,10.67
2019-02-19T03:21:28.577Z,10.62
2019-02-19T03:22:28.565Z,10.73
2019-02-19T03:23:28.544Z,10.70
2019-02-19T03:24:28.526Z,10.76
2019-02-19T03:25:28.499Z,10.67
2019-02-19T03:26:28.482Z,10.75
2019-02-19T03:27:28.463Z,10.70
2019-02-19T03:28:28.446Z,10.70
2019-02-19T03:29:28.424Z,10.72
2019-02-19T03:30:28.405Z,10.64
2019-02-19T03:31:28.387Z,10.68
2019-02-19T03:32:28.397Z,10.64
2019-02-19T03:33:28.352Z,10.64
2019-02-19T03:34:28.328Z,10.64
2019-02-19T03:35:28.309Z,10.72
2019-02-19T03:36:28.292Z,10.68
2019-02-19T03:37:28.277Z,10.72
2019-02-19T03:38:28.264Z,10.70
2019-02-19T03:39:28.235Z,10.60
2019-02-19T03:40:28.223Z,10.61
2019-02-19T03:41:28.197Z,10.70
2019-02-19T03:42:28.177Z,10.73
2019-02-19T03:43:28.158Z,10.75
2019-02-19T03:44:28.140Z,10.78
2019-02-19T03:45:28.125Z,10.73
2019-02-19T03:46:28.102Z,10.83
2019-02-19T03:47:28.084Z,10.79
2019-02-19T03:48:28.072Z,10.79
2019-02-19T03:49:28.046Z,10.83
2019-02-19T03:50:28.027Z,10.72
2019-02-19T03:51:28.010Z,10.76
2019-02-19T03:52:27.990Z,10.76
2019-02-19T03:53:27.969Z,10.76
2019-02-19T03:54:27.956Z,10.79
2019-02-19T03:55:27.940Z,10.70
2019-02-19T03:56:27.913Z,10.73
2019-02-19T03:57:27.903Z,10.75
2019-02-19T03:58:27.878Z,10.75
2019-02-19T03:59:27.857Z,10.78
2019-02-19T04:00:27.838Z,10.73
2019-02-19T04:01:27.829Z,10.45
2019-02-19T04:02:27.806Z,10.30
2019-02-19T04:03:27.780Z,10.35
2019-02-19T04:04:27.761Z,10.31
2019-02-19T04:05:27.743Z,10.12
2019-02-19T04:06:27.730Z,10.10
2019-02-19T04:07:27.708Z,10.10
2019-02-19T04:08:27.694Z,10.14
2019-02-19T04:09:27.668Z,9.83
2019-02-19T04:10:27.649Z,9.90
2019-02-19T04:11:27.631Z,9.98
2019-02-19T04:12:27.612Z,9.96
2019-02-19T04:13:27.590Z,9.96
2019-02-19T04:14:27.577Z,9.94
2019-02-19T04:15:27.555Z,9.99
2019-02-19T04:16:27.537Z,10.05
2019-02-19T04:17:27.517Z,10.05
2019-02-19T04:18:27.506Z,10.08
2019-02-19T04:19:27.483Z,10.12
2019-02-19T04:20:27.456Z,10.06
2019-02-19T04:21:27.439Z,10.14
2019-02-19T04:22:27.421Z,10.20
2019-02-19T04:23:27.398Z,10.35
2019-02-19T04:24:27.392Z,10.52
2019-02-19T04:25:27.363Z,10.76
2019-02-19T04:26:27.342Z,10.95
2019-02-19T04:27:27.327Z,11.09
2019-02-19T04:28:27.306Z,11.12
2019-02-19T04:29:27.288Z,11.20
2019-02-19T04:30:27.271Z,11.18
2019-02-19T04:31:27.247Z,11.01
2019-02-19T04:32:27.233Z,10.75
2019-02-19T04:33:27.212Z,10.65
2019-02-19T04:34:27.193Z,10.42
2019-02-19T04:35:27.176Z,10.27
2019-02-19T04:36:27.161Z,10.28
2019-02-19T04:37:27.133Z,10.23
2019-02-19T04:38:27.117Z,10.20
2019-02-19T04:39:27.097Z,10.09
2019-02-19T04:40:27.078Z,10.10
2019-02-19T04:41:27.058Z,10.05
2019-02-19T04:42:27.039Z,9.96
2019-02-19T04:43:27.023Z,9.99
2019-02-19T04:44:27.011Z,10.05
2019-02-19T04:45:26.985Z,10.03
2019-02-19T04:46:31.439Z,9.88
2019-02-19T04:47:26.945Z,9.96
2019-02-19T04:48:26.925Z,9.91
2019-02-19T04:49:26.907Z,10.01
2019-02-19T04:50:26.886Z,9.90
2019-02-19T04:51:26.870Z,9.88
2019-02-19T04:52:26.852Z,9.70
2019-02-19T04:53:26.833Z,9.80
2019-02-19T04:54:26.818Z,9.70
2019-02-19T04:55:26.806Z,9.72
2019-02-19T04:56:26.772Z,9.77
2019-02-19T04:57:26.757Z,9.73
2019-02-19T04:58:26.736Z,9.78
2019-02-19T04:59:26.720Z,9.90
2019-02-19T05:00:26.705Z,9.90
2019-02-19T05:01:26.678Z,9.87
2019-02-19T05:02:26.659Z,9.96
2019-02-19T05:03:26.651Z,9.80
2019-02-19T05:04:26.618Z,9.85
2019-02-19T05:05:26.600Z,9.90
2019-02-19T05:06:26.581Z,9.90
2019-02-19T05:07:26.564Z,9.96
2019-02-19T05:08:26.550Z,9.94
2019-02-19T05:09:26.526Z,9.98
2019-02-19T05:10:26.503Z,10.09
2019-02-19T05:11:26.484Z,9.91
2019-02-19T05:12:26.462Z,9.88
2019-02-19T05:13:26.451Z,9.88
2019-02-19T05:14:26.426Z,9.73
2019-02-19T05:15:26.409Z,9.63
2019-02-19T05:16:26.386Z,9.65
2019-02-19T05:17:26.366Z,9.63
2019-02-19T05:18:26.352Z,9.60
2019-02-19T05:19:26.328Z,9.60
2019-02-19T05:20:26.309Z,9.69
2019-02-19T05:21:26.289Z,9.70
2019-02-19T05:22:26.271Z,9.73
2019-02-19T05:23:26.250Z,9.77
2019-02-19T05:24:26.231Z,9.75
2019-02-19T05:25:26.214Z,9.78
2019-02-19T05:26:26.196Z,9.75
2019-02-19T05:27:26.175Z,9.80
2019-02-19T05:28:26.154Z,9.80
2019-02-19T05:29:26.137Z,9.75
2019-02-19T05:30:26.120Z,9.84
2019-02-19T05:31:26.097Z,9.90
2019-02-19T05:32:26.078Z,9.93
2019-02-19T05:33:26.066Z,9.87
2019-02-19T05:34:26.039Z,9.88
2019-02-19T05:35:26.017Z,9.84
2019-02-19T05:36:25.999Z,9.72
2019-02-19T05:37:25.978Z,9.70
2019-02-19T05:38:25.961Z,9.63
2019-02-19T05:39:25.941Z,9.69
2019-02-19T05:40:25.922Z,9.66
2019-02-19T05:41:25.907Z,9.67
2019-02-19T05:42:25.883Z,9.69
2019-02-19T05:43:25.869Z,9.70
2019-02-19T05:44:25.844Z,9.77
2019-02-19T05:45:25.830Z,9.62
2019-02-19T05:46:25.805Z,9.66
2019-02-19T05:47:25.789Z,9.80
2019-02-19T05:48:25.771Z,9.62
2019-02-19T05:49:25.747Z,9.69
2019-02-19T05:50:25.728Z,9.69
2019-02-19T05:51:25.717Z,9.63
2019-02-19T05:52:25.687Z,9.69
2019-02-19T05:53:25.670Z,9.77
2019-02-19T05:54:25.658Z,9.62
2019-02-19T05:55:25.638Z,9.75
2019-02-19T05:56:25.611Z,9.81
2019-02-19T05:57:25.592Z,9.85
2019-02-19T05:58:25.575Z,9.69
2019-02-19T05:59:25.574Z,9.73
2019-02-19T06:00:25.542Z,9.80
2019-02-19T06:01:25.520Z,9.81
2019-02-19T06:02:25.507Z,9.72
2019-02-19T06:03:25.474Z,9.73
2019-02-19T06:04:25.461Z,9.75
2019-02-19T06:05:25.438Z,9.72
2019-02-19T06:06:25.425Z,9.78
2019-02-19T06:07:25.399Z,9.73
2019-02-19T06:08:25.379Z,9.72
2019-02-19T06:09:25.358Z,9.63
2019-02-19T06:10:25.343Z,9.62
2019-02-19T06:11:25.318Z,9.62
2019-02-19T06:12:25.304Z,9.55
2019-02-19T06:13:25.281Z,9.59
2019-02-19T06:14:25.260Z,9.60
2019-02-19T06:15:25.245Z,9.44
2019-02-19T06:16:25.231Z,9.54
2019-02-19T06:17:25.205Z,9.62
2019-02-19T06:18:25.182Z,9.66
2019-02-19T06:19:25.163Z,9.66
2019-02-19T06:20:25.145Z,9.70
2019-02-19T06:21:25.129Z,9.77
2019-02-19T06:22:25.110Z,9.84
2019-02-19T06:23:25.085Z,9.63
2019-02-19T06:24:25.066Z,9.62
2019-02-19T06:25:25.063Z,9.65
2019-02-19T06:26:25.028Z,9.66
2019-02-19T06:27:25.018Z,9.66
2019-02-19T06:28:24.984Z,9.57
2019-02-19T06:29:24.968Z,9.57
2019-02-19T06:30:24.944Z,9.63
2019-02-19T06:31:24.933Z,9.63
2019-02-19T06:32:24.905Z,9.67
2019-02-19T06:33:24.891Z,9.66
2019-02-19T06:34:24.871Z,9.73
2019-02-19T06:35:24.849Z,9.75
2019-02-19T06:36:24.832Z,9.75
2019-02-19T06:37:24.813Z,9.65
2019-02-19T06:38:24.792Z,9.69
2019-02-19T06:39:24.768Z,9.67
2019-02-19T06:40:24.748Z,9.63
2019-02-19T06:41:24.727Z,9.67
2019-02-19T06:42:24.711Z,9.67
2019-02-19T06:43:24.688Z,9.75
2019-02-19T06:44:24.670Z,9.73
2019-02-19T06:45:24.650Z,9.73
2019-02-19T06:46:24.629Z,9.81
2019-02-19T06:47:24.608Z,9.73
2019-02-19T06:48:24.589Z,9.73
2019-02-19T06:49:24.575Z,9.90
2019-02-19T06:50:24.560Z,9.90
2019-02-19T06:51:24.531Z,9.94
2019-02-19T06:52:24.516Z,9.99
2019-02-19T06:53:24.500Z,10.02
2019-02-19T06:54:24.478Z,10.05
2019-02-19T06:55:24.455Z,9.98
2019-02-19T06:56:24.435Z,9.94
2019-02-19T06:57:24.414Z,9.93
2019-02-19T06:58:24.404Z,9.96
2019-02-19T06:59:24.388Z,9.98
2019-02-19T07:00:24.362Z,9.91
2019-02-19T07:01:24.337Z,9.70
2019-02-19T07:02:24.319Z,9.77
2019-02-19T07:03:24.296Z,9.77
2019-02-19T07:04:24.277Z,9.65
2019-02-19T07:05:24.257Z,9.73
2019-02-19T07:06:24.248Z,9.60
2019-02-19T07:07:24.228Z,9.69
2019-02-19T07:08:24.198Z,9.65
2019-02-19T07:09:24.182Z,9.69
2019-02-19T07:10:24.161Z,9.70
2019-02-19T07:11:24.142Z,9.77
2019-02-19T07:12:24.122Z,9.72
2019-02-19T07:13:24.102Z,9.84
2019-02-19T07:14:24.086Z,9.75
2019-02-19T07:15:24.063Z,9.70
2019-02-19T07:16:24.045Z,9.85
2019-02-19T07:17:24.035Z,9.85
2019-02-19T07:18:23.999Z,9.99
2019-02-19T07:19:23.982Z,9.87
2019-02-19T07:20:23.968Z,9.88
2019-02-19T07:21:23.947Z,9.73
2019-02-19T07:22:23.922Z,9.62
2019-02-19T07:23:23.902Z,9.67
2019-02-19T07:24:23.883Z,9.67
2019-02-19T07:25:23.864Z,9.60
2019-02-19T07:26:23.851Z,9.62
2019-02-19T07:27:23.829Z,9.63
2019-02-19T07:28:23.805Z,9.65
2019-02-19T07:29:23.788Z,9.65
2019-02-19T07:30:23.769Z,9.69
2019-02-19T07:31:23.746Z,9.66
2019-02-19T07:32:23.729Z,9.73
2019-02-19T07:33:23.711Z,9.73
2019-02-19T07:34:23.701Z,9.75
2019-02-19T07:35:23.669Z,9.87
2019-02-19T07:36:23.649Z,9.85
2019-02-19T07:37:23.643Z,9.83
2019-02-19T07:38:23.609Z,9.73
2019-02-19T07:39:23.587Z,9.67
2019-02-19T07:40:23.569Z,9.66
2019-02-19T07:41:23.551Z,9.72
2019-02-19T07:42:23.534Z,9.65
2019-02-19T07:43:23.517Z,9.59
2019-02-19T07:44:23.503Z,9.54
2019-02-19T07:45:23.479Z,9.62
2019-02-19T07:46:23.464Z,9.66
2019-02-19T07:47:24.848Z,9.75
2019-02-19T07:48:23.416Z,9.70
2019-02-19T07:49:23.395Z,9.78
2019-02-19T07:50:23.379Z,9.65
2019-02-19T07:51:23.355Z,9.70
2019-02-19T07:52:23.354Z,9.75
2019-02-19T07:53:23.348Z,9.73
2019-02-19T07:54:23.299Z,9.83
2019-02-19T07:55:23.277Z,9.88
2019-02-19T07:56:23.255Z,9.85
2019-02-19T07:57:23.236Z,9.87
2019-02-19T07:58:23.217Z,9.84
2019-02-19T07:59:23.275Z,9.84
2019-02-19T08:00:23.181Z,9.75
2019-02-19T08:01:23.159Z,9.72
2019-02-19T08:02:23.157Z,9.80
2019-02-19T08:03:23.123Z,9.70
2019-02-19T08:04:23.099Z,9.78
2019-02-19T08:05:23.083Z,9.75
2019-02-19T08:06:23.061Z,9.75
2019-02-19T08:07:23.042Z,9.72
2019-02-19T08:08:23.021Z,9.66
2019-02-19T08:09:23.012Z,9.66
2019-02-19T08:10:23.016Z,9.62
2019-02-19T08:11:22.962Z,9.75
2019-02-19T08:12:22.943Z,9.75
2019-02-19T08:13:22.928Z,9.80
2019-02-19T08:14:22.906Z,9.81
2019-02-19T08:15:22.892Z,9.83
2019-02-19T08:16:22.873Z,9.83
2019-02-19T08:17:22.857Z,9.77
2019-02-19T08:18:22.834Z,9.57
2019-02-19T08:19:22.803Z,9.62
2019-02-19T08:20:22.790Z,9.60
2019-02-19T08:21:22.770Z,9.60
2019-02-19T08:22:22.753Z,9.66
2019-02-19T08:23:22.726Z,9.57
2019-02-19T08:24:22.709Z,9.59
2019-02-19T08:25:22.694Z,9.52
2019-02-19T08:26:22.671Z,9.55
2019-02-19T08:27:22.646Z,9.65
2019-02-19T08:28:22.641Z,9.65
2019-02-19T08:29:22.609Z,9.65
2019-02-19T08:30:22.597Z,9.62
2019-02-19T08:31:22.602Z,9.75
2019-02-19T08:32:22.551Z,9.77
2019-02-19T08:33:22.531Z,9.78
2019-02-19T08:34:22.511Z,9.87
2019-02-19T08:35:22.537Z,9.87
2019-02-19T08:36:22.470Z,9.88
2019-02-19T08:37:22.455Z,9.90
2019-02-19T08:38:22.440Z,9.91
2019-02-19T08:39:22.415Z,9.88
2019-02-19T08:40:22.391Z,9.85
2019-02-19T08:41:22.375Z,9.90
2019-02-19T08:42:22.353Z,9.83
2019-02-19T08:43:22.333Z,9.91
2019-02-19T08:44:22.316Z,9.98
2019-02-19T08:45:22.295Z,10.05
2019-02-19T08:46:22.287Z,10.09
2019-02-19T08:47:22.257Z,10.08
2019-02-19T08:48:22.236Z,10.18
2019-02-19T08:49:22.215Z,10.23
2019-02-19T08:50:22.208Z,9.99
2019-02-19T08:51:22.227Z,10.05
2019-02-19T08:52:22.174Z,10.10
2019-02-19T08:53:22.138Z,10.10
2019-02-19T08:54:22.136Z,10.09
2019-02-19T08:55:22.104Z,10.05
2019-02-19T08:56:22.089Z,10.12
2019-02-19T08:57:22.061Z,9.94
2019-02-19T08:58:22.044Z,10.05
2019-02-19T08:59:22.023Z,10.10
2019-02-19T09:00:22.014Z,10.23
2019-02-19T09:01:21.990Z,10.23
2019-02-19T09:02:21.970Z,10.26
2019-02-19T09:03:21.949Z,10.21
2019-02-19T09:04:21.962Z,10.14
2019-02-19T09:05:21.907Z,10.20
2019-02-19T09:06:21.891Z,10.36
2019-02-19T09:07:21.871Z,10.76
2019-02-19T09:08:21.858Z,12.35
2019-02-19T09:09:21.839Z,12.69
2019-02-19T09:10:21.816Z,12.30
2019-02-19T09:11:21.802Z,11.97
2019-02-19T09:12:21.785Z,11.70
2019-02-19T09:13:21.768Z,11.67
2019-02-19T09:14:21.755Z,12.11
2019-02-19T09:15:21.724Z,11.71
2019-02-19T09:16:21.726Z,11.56
2019-02-19T09:17:21.693Z,11.49
2019-02-19T09:18:21.682Z,11.40
2019-02-19T09:19:21.657Z,11.61
2019-02-19T09:20:21.647Z,11.23
2019-02-19T09:21:21.623Z,11.00
2019-02-19T09:22:21.602Z,10.68
2019-02-19T09:23:21.583Z,10.36
2019-02-19T09:24:21.567Z,11.01
2019-02-19T09:25:21.550Z,12.03
2019-02-19T09:26:21.537Z,11.73
2019-02-19T09:27:21.515Z,11.45
2019-02-19T09:28:21.708Z,11.04
2019-02-19T09:29:21.481Z,10.97
2019-02-19T09:30:21.466Z,11.61
2019-02-19T09:31:21.457Z,12.36
2019-02-19T09:32:21.434Z,13.23
2019-02-19T09:33:21.413Z,12.69
2019-02-19T09:34:21.400Z,12.08
2019-02-19T09:35:21.386Z,12.29
2019-02-19T09:36:21.368Z,11.61
2019-02-19T09:37:21.355Z,11.64
2019-02-19T09:38:21.336Z,11.49
2019-02-19T09:39:21.317Z,11.52
2019-02-19T09:40:21.305Z,11.71
2019-02-19T09:41:21.285Z,11.52
2019-02-19T09:42:21.269Z,11.34
2019-02-19T09:43:21.252Z,11.19
2019-02-19T09:44:21.236Z,11.54
2019-02-19T09:45:21.218Z,11.56
2019-02-19T09:46:21.208Z,11.70
2019-02-19T09:47:21.185Z,12.47
2019-02-19T09:48:21.171Z,13.11
2019-02-19T09:49:21.155Z,12.47
2019-02-19T09:50:21.143Z,12.30
2019-02-19T09:51:21.120Z,12.22
2019-02-19T09:52:21.105Z,12.36
2019-02-19T09:53:21.089Z,12.30
2019-02-19T09:54:21.073Z,12.08
2019-02-19T09:55:21.054Z,11.64
2019-02-19T09:56:21.039Z,11.64
2019-02-19T09:57:21.030Z,12.35
2019-02-19T09:58:21.017Z,12.08
2019-02-19T09:59:20.994Z,11.97
2019-02-19T10:00:20.974Z,11.91
2019-02-19T10:01:20.962Z,11.89
2019-02-19T10:02:20.945Z,11.99
2019-02-19T10:03:20.924Z,11.91
2019-02-19T10:04:20.910Z,11.71
2019-02-19T10:05:20.901Z,11.66
2019-02-19T10:06:20.884Z,12.08
2019-02-19T10:07:20.859Z,12.05
2019-02-19T10:08:20.840Z,12.00
2019-02-19T10:09:20.829Z,12.81
2019-02-19T10:10:20.821Z,12.66
2019-02-19T10:11:20.793Z,12.55
2019-02-19T10:12:20.774Z,12.32
2019-02-19T10:13:20.762Z,12.17
2019-02-19T10:14:20.742Z,12.22
2019-02-19T10:15:20.743Z,12.84
2019-02-19T10:16:20.712Z,12.80
2019-02-19T10:17:20.696Z,12.41
2019-02-19T10:18:20.685Z,12.18
2019-02-19T10:19:20.661Z,12.11
2019-02-19T10:20:20.655Z,12.00
2019-02-19T10:21:20.627Z,11.95
2019-02-19T10:22:20.612Z,11.74
2019-02-19T10:23:20.611Z,11.71
2019-02-19T10:24:20.580Z,11.85
2019-02-19T10:25:20.570Z,12.17
2019-02-19T10:26:20.548Z,12.46
2019-02-19T10:27:20.529Z,12.22
2019-02-19T10:28:20.512Z,12.11
2019-02-19T10:29:20.501Z,12.10
2019-02-19T10:30:20.504Z,12.03
2019-02-19T10:31:20.461Z,11.96
2019-02-19T10:32:20.444Z,11.85
2019-02-19T10:33:20.432Z,11.95
2019-02-19T10:34:20.409Z,11.96
2019-02-19T10:35:20.395Z,12.17
2019-02-19T10:36:20.375Z,12.10
2019-02-19T10:37:20.356Z,12.15
2019-02-19T10:38:20.352Z,12.17
2019-02-19T10:39:20.334Z,12.21
2019-02-19T10:40:20.315Z,12.68
2019-02-19T10:41:20.298Z,12.88
2019-02-19T10:42:20.278Z,13.17
2019-02-19T10:43:20.269Z,13.45
2019-02-19T10:44:20.245Z,14.18
2019-02-19T10:45:20.223Z,14.73
2019-02-19T10:46:20.208Z,14.41
2019-02-19T10:47:20.193Z,13.58
2019-02-19T10:48:20.189Z,12.96
2019-02-19T10:49:20.164Z,12.91
2019-02-19T10:50:20.148Z,12.90
2019-02-19T10:51:20.143Z,13.67
2019-02-19T10:52:20.114Z,13.76
2019-02-19T10:53:20.106Z,14.13
2019-02-19T10:54:20.084Z,14.22
2019-02-19T10:55:20.070Z,14.28
2019-02-19T10:56:20.057Z,14.70
2019-02-19T10:57:20.039Z,14.45
2019-02-19T10:58:22.942Z,14.36
2019-02-19T10:59:20.009Z,13.61
2019-02-19T11:00:19.994Z,13.27
2019-02-19T11:01:19.981Z,13.01
2019-02-19T11:02:19.963Z,12.58
2019-02-19T11:03:19.949Z,12.46
2019-02-19T11:04:19.934Z,12.46
2019-02-19T11:05:19.919Z,12.47
2019-02-19T11:06:19.901Z,12.40
2019-02-19T11:07:19.887Z,12.18
2019-02-19T11:08:19.874Z,12.08
2019-02-19T11:09:19.856Z,12.04
2019-02-19T11:10:19.847Z,11.93
2019-02-19T11:11:19.830Z,11.91
2019-02-19T11:12:19.804Z,11.95
2019-02-19T11:13:19.787Z,11.97
2019-02-19T11:14:19.770Z,12.07
2019-02-19T11:15:19.763Z,12.21
2019-02-19T11:16:19.744Z,12.48
2019-02-19T11:17:19.994Z,12.47
2019-02-19T11:18:27.843Z,12.84
2019-02-19T11:19:19.687Z,13.05
2019-02-19T11:20:19.668Z,12.98
2019-02-19T11:21:20.085Z,13.21
2019-02-19T11:22:19.636Z,12.99
2019-02-19T11:23:19.619Z,12.99
2019-02-19T11:24:19.606Z,12.96
2019-02-19T11:25:19.615Z,12.96
2019-02-19T11:26:19.581Z,12.87
2019-02-19T11:27:19.552Z,12.98
2019-02-19T11:28:19.540Z,13.19
2019-02-19T11:29:19.522Z,13.23
2019-02-19T11:30:20.452Z,13.29
2019-02-19T11:31:19.491Z,13.17
2019-02-19T11:32:19.474Z,12.93
2019-02-19T11:33:19.460Z,12.71
2019-02-19T11:34:19.443Z,12.61
2019-02-19T11:35:19.428Z,12.76
2019-02-19T11:36:19.411Z,12.63
2019-02-19T11:37:19.396Z,12.76
2019-02-19T11:38:19.376Z,12.62
2019-02-19T11:39:19.371Z,12.66
2019-02-19T11:40:19.343Z,12.76
2019-02-19T11:41:19.328Z,12.99
2019-02-19T11:42:19.314Z,13.26
2019-02-19T11:43:19.292Z,13.63
2019-02-19T11:44:19.276Z,13.60
2019-02-19T11:45:19.265Z,13.36
2019-02-19T11:46:19.245Z,13.23
2019-02-19T11:47:26.435Z,13.21
2019-02-19T11:48:19.260Z,13.05
2019-02-19T11:49:19.197Z,13.06
2019-02-19T11:50:19.181Z,13.55
2019-02-19T11:51:19.171Z,13.83
2019-02-19T11:52:19.145Z,13.83
2019-02-19T11:53:19.143Z,13.83
2019-02-19T11:54:19.125Z,13.91
2019-02-19T11:55:19.103Z,13.46
2019-02-19T11:56:19.082Z,13.16
2019-02-19T11:57:19.068Z,13.01
2019-02-19T11:58:19.066Z,12.93
2019-02-19T11:59:19.042Z,12.86
2019-02-19T12:00:19.019Z,12.79
2019-02-19T12:01:19.010Z,12.50
2019-02-19T12:02:18.996Z,12.43
2019-02-19T12:03:18.970Z,12.33
2019-02-19T12:04:18.957Z,12.25
2019-02-19T12:05:18.938Z,12.29
2019-02-19T12:06:18.919Z,12.33
2019-02-19T12:07:18.907Z,12.38
2019-02-19T12:08:18.885Z,12.18
2019-02-19T12:09:18.870Z,12.14
2019-02-19T12:10:18.857Z,12.15
2019-02-19T12:11:18.844Z,12.08
2019-02-19T12:12:18.818Z,12.13
2019-02-19T12:13:18.808Z,12.21
2019-02-19T12:14:18.784Z,12.35
2019-02-19T12:15:19.314Z,12.43
2019-02-19T12:16:18.759Z,12.47
2019-02-19T12:17:18.729Z,12.68
2019-02-19T12:18:18.733Z,12.59
2019-02-19T12:19:18.694Z,12.59
2019-02-19T12:20:18.680Z,12.59
2019-02-19T12:21:18.664Z,12.51
2019-02-19T12:22:18.658Z,12.29
2019-02-19T12:23:18.630Z,12.33
2019-02-19T12:24:18.615Z,12.33
2019-02-19T12:25:18.596Z,12.46
2019-02-19T12:26:18.583Z,12.61
2019-02-19T12:27:18.567Z,12.50
2019-02-19T12:28:18.544Z,12.62
2019-02-19T12:29:18.523Z,12.51
2019-02-19T12:30:18.522Z,12.59
2019-02-19T12:31:18.497Z,12.61
2019-02-19T12:32:18.470Z,12.47
2019-02-19T12:33:18.455Z,12.43
2019-02-19T12:34:18.439Z,12.41
2019-02-19T12:35:18.422Z,12.46
2019-02-19T12:36:18.407Z,12.38
2019-02-19T12:37:18.390Z,12.38
2019-02-19T12:38:18.369Z,12.17
2019-02-19T12:39:18.353Z,12.14
2019-02-19T12:40:18.333Z,12.00
2019-02-19T12:41:18.316Z,11.99
2019-02-19T12:42:18.312Z,12.07
2019-02-19T12:43:18.286Z,12.07
2019-02-19T12:44:18.264Z,12.13
2019-02-19T12:45:18.246Z,12.00
2019-02-19T12:46:18.228Z,11.84
2019-02-19T12:47:18.212Z,12.00
2019-02-19T12:48:18.195Z,11.87
2019-02-19T12:49:18.178Z,11.85
2019-02-19T12:50:18.162Z,11.76
2019-02-19T12:51:26.127Z,11.76
2019-02-19T12:52:18.119Z,11.71
2019-02-19T12:53:18.108Z,11.85
2019-02-19T12:54:18.092Z,11.97
2019-02-19T12:55:18.071Z,12.04
2019-02-19T12:56:18.055Z,12.04
2019-02-19T12:57:18.033Z,11.99
2019-02-19T12:58:18.013Z,12.14
2019-02-19T12:59:18.008Z,12.07
2019-02-19T13:00:17.983Z,12.05